Time;durP1;ratioP1;P1;durP2;ratioP2;P2;SDS_P1;SDS_P2;PMS_P1;PMS_P2;Temp;Humidity;BMP_temperature;BMP_pressure;BME280_temperature;BME280_humidity;BME280_pressure;Samples;Min_cycle;Max_cycle;Signal;HPM_P1;HPM_P2
2021/01/22 00:01:04;;;;;;;28.60;10.50;;;;;;;;;;8289626;28;20493;-71
2021/01/22 00:05:08;;;;;;;26.70;9.27;;;;;;;;;;8286558;28;20490;-70
2021/01/22 00:09:12;;;;;;;23.98;9.32;;;;;;;;;;8289436;28;20356;-71
2021/01/22 00:13:15;;;;;;;25.83;8.95;;;;;;;;;;8289946;28;20092;-72
2021/01/22 00:17:18;;;;;;;35.55;10.27;;;;;;;;;;8290037;28;20052;-71
2021/01/22 00:21:22;;;;;;;35.92;14.68;;;;;;;;;;8289465;28;20414;-71
2021/01/22 00:25:25;;;;;;;34.33;14.32;;;;;;;;;;8289392;28;20382;-71
2021/01/22 00:29:28;;;;;;;44.92;15.30;;;;;;;;;;8289358;28;20363;-70
2021/01/22 00:33:31;;;;;;;36.60;14.38;;;;;;;;;;8289649;28;20401;-70
2021/01/22 00:37:34;;;;;;;30.30;13.30;;;;;;;;;;8289428;28;20485;-71
2021/01/22 00:41:38;;;;;;;34.85;13.05;;;;;;;;;;8289273;28;20366;-71
2021/01/22 00:45:41;;;;;;;32.72;13.82;;;;;;;;;;8289084;28;20489;-70
2021/01/22 00:49:44;;;;;;;38.95;13.50;;;;;;;;;;8289378;28;20072;-70
2021/01/22 00:53:46;;;;;;;41.70;15.35;;;;;;;;;;8289151;28;20482;-70
2021/01/22 00:57:49;;;;;;;47.78;16.00;;;;;;;;;;8287150;28;20447;-70
2021/01/22 01:01:55;;;;;;;43.10;14.68;;;;;;;;;;8303557;28;20464;-72
2021/01/22 01:05:58;;;;;;;47.40;15.52;;;;;;;;;;8303948;28;20052;-70
2021/01/22 01:10:06;;;;;;;37.05;14.75;;;;;;;;;;8288892;28;20494;-73
2021/01/22 01:14:43;;;;;;;31.02;13.43;;;;;;;;;;8290135;28;20098;-70
2021/01/22 01:18:49;;;;;;;27.60;11.60;;;;;;;;;;8309881;28;20463;-70
2021/01/22 01:22:53;;;;;;;23.10;8.80;;;;;;;;;;8294991;28;20455;-70
2021/01/22 01:26:57;;;;;;;20.60;8.02;;;;;;;;;;8294159;28;20459;-70
2021/01/22 01:30:59;;;;;;;28.35;9.18;;;;;;;;;;8309541;28;20045;-70
2021/01/22 01:35:03;;;;;;;22.88;8.80;;;;;;;;;;8294376;28;20475;-70
2021/01/22 01:39:07;;;;;;;30.92;11.00;;;;;;;;;;8296162;28;20459;-70
2021/01/22 01:43:10;;;;;;;30.15;9.43;;;;;;;;;;8293984;28;20115;-70
2021/01/22 01:47:14;;;;;;;26.85;9.38;;;;;;;;;;8293594;28;20356;-70
2021/01/22 01:51:18;;;;;;;23.90;9.18;;;;;;;;;;8293675;28;20075;-70
2021/01/22 01:55:21;;;;;;;19.15;8.57;;;;;;;;;;8293549;28;20471;-70
2021/01/22 01:59:24;;;;;;;18.85;7.13;;;;;;;;;;8292939;28;20486;-70
2021/01/22 02:03:27;;;;;;;18.27;7.60;;;;;;;;;;8291963;28;20374;-70
2021/01/22 02:07:31;;;;;;;18.73;7.13;;;;;;;;;;8292983;28;20508;-70
2021/01/22 02:11:35;;;;;;;16.55;7.03;;;;;;;;;;8307996;28;20482;-70
2021/01/22 02:15:39;;;;;;;21.17;7.53;;;;;;;;;;8292556;28;20352;-70
2021/01/22 02:19:45;;;;;;;15.65;7.25;;;;;;;;;;8291590;28;20375;-70
2021/01/22 02:23:50;;;;;;;22.48;6.82;;;;;;;;;;8292921;28;20371;-70
2021/01/22 02:27:54;;;;;;;17.83;8.05;;;;;;;;;;8292214;28;20053;-70
2021/01/22 02:32:00;;;;;;;18.38;8.05;;;;;;;;;;8290646;28;20375;-70
2021/01/22 02:36:05;;;;;;;22.88;7.47;;;;;;;;;;8307003;28;20482;-70
2021/01/22 02:40:10;;;;;;;15.68;6.38;;;;;;;;;;8307506;28;20417;-70
2021/01/22 02:44:16;;;;;;;10.40;5.65;;;;;;;;;;8307191;28;20383;-70
2021/01/22 02:48:19;;;;;;;12.90;5.95;;;;;;;;;;8306420;28;20463;-70
2021/01/22 02:52:25;;;;;;;13.93;5.50;;;;;;;;;;8291961;28;20406;-71
2021/01/22 02:56:52;;;;;;;14.07;6.28;;;;;;;;;;8291030;28;20479;-70
2021/01/22 03:01:03;;;;;;;17.05;6.30;;;;;;;;;;8291508;28;20489;-70
2021/01/22 03:05:08;;;;;;;17.10;6.82;;;;;;;;;;8306915;28;20483;-70
2021/01/22 03:09:20;;;;;;;15.13;7.18;;;;;;;;;;8306010;28;20471;-71
2021/01/22 03:13:25;;;;;;;16.15;7.15;;;;;;;;;;8290025;28;20489;-70
2021/01/22 03:17:28;;;;;;;17.00;6.35;;;;;;;;;;8305762;28;20478;-70
2021/01/22 03:21:32;;;;;;;18.30;6.03;;;;;;;;;;8305813;28;20396;-71
2021/01/22 03:25:35;;;;;;;17.23;6.05;;;;;;;;;;8290909;28;20395;-71
2021/01/22 03:29:39;;;;;;;13.77;5.70;;;;;;;;;;8305115;28;20453;-70
2021/01/22 03:33:42;;;;;;;16.02;5.65;;;;;;;;;;8289203;28;20467;-70
2021/01/22 03:37:46;;;;;;;15.52;5.70;;;;;;;;;;8289390;28;20167;-70
2021/01/22 03:41:50;;;;;;;19.83;7.03;;;;;;;;;;8289484;28;20379;-70
2021/01/22 03:45:53;;;;;;;17.38;6.95;;;;;;;;;;8290175;28;20379;-70
2021/01/22 03:49:57;;;;;;;20.63;7.57;;;;;;;;;;8290111;28;20467;-70
2021/01/22 03:54:00;;;;;;;22.77;7.90;;;;;;;;;;8289399;28;20463;-70
2021/01/22 03:58:04;;;;;;;22.35;8.02;;;;;;;;;;8289831;28;20419;-70
2021/01/22 04:02:07;;;;;;;20.20;7.90;;;;;;;;;;8289133;28;20525;-70
2021/01/22 04:06:10;;;;;;;20.10;8.15;;;;;;;;;;8289359;28;20471;-71
2021/01/22 04:10:14;;;;;;;21.55;8.13;;;;;;;;;;8289519;28;20379;-71
2021/01/22 04:14:17;;;;;;;26.75;8.80;;;;;;;;;;8287675;28;20370;-70
2021/01/22 04:18:20;;;;;;;25.70;7.35;;;;;;;;;;8289216;28;20476;-70
2021/01/22 04:22:24;;;;;;;22.90;8.85;;;;;;;;;;8289369;28;20478;-69
2021/01/22 04:26:27;;;;;;;22.52;8.90;;;;;;;;;;8287638;28;20527;-69
2021/01/22 04:30:30;;;;;;;20.23;8.25;;;;;;;;;;8303894;28;20075;-69
2021/01/22 04:34:34;;;;;;;22.15;7.43;;;;;;;;;;8287379;28;20397;-70
2021/01/22 04:38:37;;;;;;;21.63;7.63;;;;;;;;;;8289497;28;20438;-69
2021/01/22 04:42:45;;;;;;;14.73;6.13;;;;;;;;;;8305506;28;20497;-69
2021/01/22 04:46:48;;;;;;;20.05;6.55;;;;;;;;;;8289533;28;20482;-69
2021/01/22 04:50:55;;;;;;;14.73;6.00;;;;;;;;;;8291308;28;20353;-69
2021/01/22 04:54:59;;;;;;;19.67;6.40;;;;;;;;;;8293857;28;20371;-69
2021/01/22 04:59:15;;;;;;;19.50;6.75;;;;;;;;;;8295069;28;20056;-69
2021/01/22 05:03:18;;;;;;;16.02;7.05;;;;;;;;;;8293589;28;20041;-69
2021/01/22 05:07:22;;;;;;;17.75;6.18;;;;;;;;;;8309996;28;20471;-69
2021/01/22 05:11:26;;;;;;;17.67;6.13;;;;;;;;;;8295357;28;20363;-70
2021/01/22 05:15:29;;;;;;;18.08;6.60;;;;;;;;;;8309340;28;20048;-69
2021/01/22 05:19:38;;;;;;;19.77;7.65;;;;;;;;;;8310096;28;20467;-70
2021/01/22 05:23:42;;;;;;;20.45;6.72;;;;;;;;;;8294662;28;20408;-69
2021/01/22 05:28:03;;;;;;;16.17;5.95;;;;;;;;;;8294588;28;20471;-71
2021/01/22 05:32:29;;;;;;;22.65;6.13;;;;;;;;;;8294378;28;20422;-69
2021/01/22 05:36:33;;;;;;;8.52;3.92;;;;;;;;;;8294266;28;20482;-69
2021/01/22 05:40:36;;;;;;;8.48;3.58;;;;;;;;;;8294130;28;20473;-70
2021/01/22 05:44:53;;;;;;;11.98;4.35;;;;;;;;;;8294027;28;20467;-70
2021/01/22 05:49:13;;;;;;;10.15;3.90;;;;;;;;;;8308717;28;20394;-70
2021/01/22 05:53:18;;;;;;;13.38;3.60;;;;;;;;;;8293797;28;20466;-71
2021/01/22 05:57:25;;;;;;;7.57;3.15;;;;;;;;;;8292356;28;20460;-70
2021/01/22 06:01:28;;;;;;;9.30;3.63;;;;;;;;;;8306843;28;20487;-70
2021/01/22 06:05:32;;;;;;;8.38;3.33;;;;;;;;;;8307783;28;20493;-70
2021/01/22 06:09:36;;;;;;;12.13;3.65;;;;;;;;;;8307813;28;20366;-70
2021/01/22 06:13:41;;;;;;;10.50;5.30;;;;;;;;;;8292912;28;20398;-70
2021/01/22 06:17:52;;;;;;;18.00;6.85;;;;;;;;;;8291307;28;20474;-70
2021/01/22 06:22:04;;;;;;;31.42;13.35;;;;;;;;;;8293094;28;20508;-71
2021/01/22 06:26:07;;;;;;;26.25;11.18;;;;;;;;;;8291445;28;20058;-70
2021/01/22 06:30:11;;;;;;;34.85;13.10;;;;;;;;;;8307579;28;20048;-70
2021/01/22 06:34:16;;;;;;;32.45;12.88;;;;;;;;;;8292535;28;20451;-71
2021/01/22 06:38:23;;;;;;;21.50;9.82;;;;;;;;;;8292320;28;20375;-70
2021/01/22 06:42:26;;;;;;;17.55;7.43;;;;;;;;;;8306813;28;20082;-73
2021/01/22 06:46:32;;;;;;;18.17;6.55;;;;;;;;;;8289974;28;20486;-69
2021/01/22 06:50:38;;;;;;;12.32;4.95;;;;;;;;;;8306516;28;20356;-70
2021/01/22 06:55:04;;;;;;;12.35;5.03;;;;;;;;;;8306633;28;20387;-71
2021/01/22 06:59:20;;;;;;;12.98;4.18;;;;;;;;;;8291048;28;20382;-71
2021/01/22 07:03:38;;;;;;;32.33;11.93;;;;;;;;;;8289572;28;20378;-70
2021/01/22 07:07:48;;;;;;;18.80;8.02;;;;;;;;;;8291299;28;20390;-70
2021/01/22 07:11:56;;;;;;;11.52;4.47;;;;;;;;;;8290552;28;20476;-71
2021/01/22 07:16:11;;;;;;;15.00;5.63;;;;;;;;;;8305701;28;20482;-70
2021/01/22 07:20:14;;;;;;;17.23;7.47;;;;;;;;;;8291825;28;20471;-71
2021/01/22 07:24:18;;;;;;;12.15;5.38;;;;;;;;;;8289156;28;20068;-70
2021/01/22 07:28:25;;;;;;;15.75;6.72;;;;;;;;;;8289091;28;20378;-70
2021/01/22 07:32:28;;;;;;;35.53;13.80;;;;;;;;;;8291004;28;20052;-70
2021/01/22 07:36:32;;;;;;;58.72;20.17;;;;;;;;;;8305444;28;20409;-71
2021/01/22 07:40:35;;;;;;;66.07;25.08;;;;;;;;;;8305087;28;20493;-71
2021/01/22 07:44:42;;;;;;;86.43;28.45;;;;;;;;;;8304933;28;20356;-70
2021/01/22 07:48:48;;;;;;;143.13;40.58;;;;;;;;;;8288399;28;20041;-70
2021/01/22 07:52:52;;;;;;;240.20;63.63;;;;;;;;;;8290269;28;20368;-71
2021/01/22 07:56:55;;;;;;;178.10;51.33;;;;;;;;;;8290071;28;20497;-71
2021/01/22 08:00:59;;;;;;;136.70;38.70;;;;;;;;;;8304312;28;20123;-71
2021/01/22 08:05:08;;;;;;;89.75;29.55;;;;;;;;;;8304282;28;20467;-71
2021/01/22 08:09:12;;;;;;;98.60;28.85;;;;;;;;;;8287884;28;20455;-72
2021/01/22 08:13:15;;;;;;;105.05;28.25;;;;;;;;;;8289304;28;20463;-71
2021/01/22 08:17:19;;;;;;;91.63;28.17;;;;;;;;;;8287516;28;20060;-71
2021/01/22 08:21:23;;;;;;;81.70;28.50;;;;;;;;;;8304277;28;20367;-71
2021/01/22 08:25:36;;;;;;;92.82;28.67;;;;;;;;;;8303697;28;20475;-71
2021/01/22 08:29:39;;;;;;;182.85;45.10;;;;;;;;;;8289045;28;20463;-72
2021/01/22 08:33:43;;;;;;;108.05;35.47;;;;;;;;;;8288885;28;20479;-72
2021/01/22 08:37:49;;;;;;;111.13;36.95;;;;;;;;;;8286849;28;20375;-72
2021/01/22 08:41:51;;;;;;;152.57;43.03;;;;;;;;;;8291067;28;20454;-73
2021/01/22 08:46:10;;;;;;;229.10;54.35;;;;;;;;;;8289206;28;20063;-74
2021/01/22 08:50:17;;;;;;;140.38;44.20;;;;;;;;;;8289201;28;20470;-74
2021/01/22 08:54:21;;;;;;;135.35;46.25;;;;;;;;;;8290359;28;20498;-76
2021/01/22 08:58:29;;;;;;;223.38;66.97;;;;;;;;;;8303422;28;20045;-77
2021/01/22 09:02:41;;;;;;;162.45;56.88;;;;;;;;;;8286440;28;20041;-75
2021/01/22 09:06:47;;;;;;;141.52;53.67;;;;;;;;;;8302512;28;20406;-75
2021/01/22 09:10:53;;;;;;;80.88;36.30;;;;;;;;;;8289318;28;20466;-75
2021/01/22 09:15:02;;;;;;;76.57;32.00;;;;;;;;;;8288908;28;20493;-76
2021/01/22 09:19:05;;;;;;;161.55;44.40;;;;;;;;;;8288415;28;20386;-75
2021/01/22 09:23:08;;;;;;;160.73;40.95;;;;;;;;;;8288579;28;20410;-75
2021/01/22 09:27:13;;;;;;;61.80;23.83;;;;;;;;;;8288675;28;20498;-77
2021/01/22 09:31:16;;;;;;;155.90;36.40;;;;;;;;;;8293644;28;20352;-77
2021/01/22 09:35:23;;;;;;;170.98;41.05;;;;;;;;;;8303373;28;20493;-77
2021/01/22 09:39:31;;;;;;;131.55;36.42;;;;;;;;;;8294010;28;20052;-78
2021/01/22 09:43:35;;;;;;;135.68;41.58;;;;;;;;;;8294588;28;20489;-79
2021/01/22 09:47:39;;;;;;;213.68;53.20;;;;;;;;;;8295786;28;20056;-79
2021/01/22 09:51:43;;;;;;;78.07;26.92;;;;;;;;;;8302217;28;20368;-80
2021/01/22 09:55:46;;;;;;;62.03;24.48;;;;;;;;;;8333168;28;20417;-81
2021/01/22 09:59:49;;;;;;;169.65;56.42;;;;;;;;;;8335385;28;20053;-80
2021/01/22 10:03:53;;;;;;;124.65;39.22;;;;;;;;;;8331081;28;20041;-81
2021/01/22 10:07:56;;;;;;;119.35;41.67;;;;;;;;;;8333844;28;20052;-81
2021/01/22 10:12:00;;;;;;;108.93;39.97;;;;;;;;;;8314002;28;20481;-81
2021/01/22 10:16:04;;;;;;;53.53;17.35;;;;;;;;;;8319197;28;20471;-80
2021/01/22 10:20:08;;;;;;;30.98;11.48;;;;;;;;;;8295729;28;20455;-79
2021/01/22 10:24:11;;;;;;;38.10;12.63;;;;;;;;;;8290629;28;20490;-79
2021/01/22 10:28:15;;;;;;;52.15;15.55;;;;;;;;;;8291327;28;20094;-79
2021/01/22 10:32:18;;;;;;;23.88;8.27;;;;;;;;;;8297323;28;20471;-79
2021/01/22 10:36:21;;;;;;;18.05;7.35;;;;;;;;;;8297922;28;20471;-80
2021/01/22 10:40:24;;;;;;;14.70;5.35;;;;;;;;;;8294395;28;20475;-80
2021/01/22 10:44:27;;;;;;;10.30;4.68;;;;;;;;;;8294680;28;20451;-80
2021/01/22 10:48:31;;;;;;;8.35;3.28;;;;;;;;;;8303433;28;20048;-81
2021/01/22 10:52:34;;;;;;;9.27;3.80;;;;;;;;;;8314157;28;20475;-80
2021/01/22 10:56:43;;;;;;;25.70;8.50;;;;;;;;;;8321943;28;20378;-79
2021/01/22 11:00:47;;;;;;;18.00;5.90;;;;;;;;;;8338503;28;20479;-78
2021/01/22 11:04:50;;;;;;;20.17;8.32;;;;;;;;;;8355148;28;20058;-78
2021/01/22 11:08:53;;;;;;;22.17;8.77;;;;;;;;;;8316891;28;20471;-77
2021/01/22 11:12:57;;;;;;;17.55;6.95;;;;;;;;;;8305469;28;20374;-77
2021/01/22 11:17:00;;;;;;;35.67;15.18;;;;;;;;;;8296383;28;20062;-76
2021/01/22 11:21:05;;;;;;;30.83;12.82;;;;;;;;;;8298590;28;20479;-76
2021/01/22 11:25:09;;;;;;;35.72;14.43;;;;;;;;;;8306581;28;20070;-76
2021/01/22 11:29:12;;;;;;;26.65;10.50;;;;;;;;;;8274330;28;20048;-76
2021/01/22 11:33:15;;;;;;;31.50;11.55;;;;;;;;;;8290814;28;20386;-75
2021/01/22 11:37:18;;;;;;;21.98;9.13;;;;;;;;;;8292293;28;20360;-75
2021/01/22 11:41:22;;;;;;;13.55;6.43;;;;;;;;;;8290518;28;20379;-75
2021/01/22 11:45:25;;;;;;;24.63;5.97;;;;;;;;;;8290313;28;20048;-75
2021/01/22 11:49:28;;;;;;;21.10;7.78;;;;;;;;;;8289293;28;20379;-75
2021/01/22 11:53:32;;;;;;;18.33;6.95;;;;;;;;;;8289901;28;20576;-76
2021/01/22 11:57:35;;;;;;;29.75;11.57;;;;;;;;;;8288551;28;20079;-75
2021/01/22 12:01:38;;;;;;;19.48;9.25;;;;;;;;;;8288394;28;20041;-75
2021/01/22 12:05:41;;;;;;;18.83;8.30;;;;;;;;;;8289689;28;20579;-76
2021/01/22 12:09:58;;;;;;;17.75;6.68;;;;;;;;;;8289588;28;20488;-75
2021/01/22 12:14:01;;;;;;;15.45;5.90;;;;;;;;;;8289768;28;20521;-75
2021/01/22 12:18:05;;;;;;;21.70;7.72;;;;;;;;;;8289397;28;20411;-75
2021/01/22 12:22:09;;;;;;;19.65;8.25;;;;;;;;;;8289758;28;20072;-74
2021/01/22 12:26:13;;;;;;;28.38;13.10;;;;;;;;;;8290103;28;20482;-74
2021/01/22 12:30:18;;;;;;;32.97;15.05;;;;;;;;;;8289723;28;20479;-75
2021/01/22 12:34:22;;;;;;;30.40;14.50;;;;;;;;;;8289336;28;20411;-75
2021/01/22 12:38:25;;;;;;;32.40;16.52;;;;;;;;;;8289079;28;20478;-74
2021/01/22 12:42:28;;;;;;;31.52;15.13;;;;;;;;;;8289351;28;20372;-74
2021/01/22 12:46:31;;;;;;;38.22;17.17;;;;;;;;;;8287846;28;20383;-74
2021/01/22 12:50:35;;;;;;;48.53;22.13;;;;;;;;;;8303251;28;20071;-74
2021/01/22 12:54:38;;;;;;;41.50;22.63;;;;;;;;;;8305737;28;20370;-74
2021/01/22 12:58:41;;;;;;;53.47;26.00;;;;;;;;;;8288632;28;20409;-74
2021/01/22 13:02:44;;;;;;;40.97;18.88;;;;;;;;;;8289119;28;20040;-74
2021/01/22 13:06:48;;;;;;;48.63;23.90;;;;;;;;;;8303997;28;20387;-74
2021/01/22 13:10:51;;;;;;;53.45;25.25;;;;;;;;;;8290688;28;20456;-75
2021/01/22 13:14:54;;;;;;;43.80;21.38;;;;;;;;;;8293494;28;20371;-74
2021/01/22 13:18:57;;;;;;;39.42;16.42;;;;;;;;;;8276668;28;20370;-73
2021/01/22 13:23:02;;;;;;;38.85;18.95;;;;;;;;;;8309312;28;20439;-76
2021/01/22 13:27:06;;;;;;;32.80;12.73;;;;;;;;;;8308976;28;20501;-74
2021/01/22 13:31:09;;;;;;;35.78;15.05;;;;;;;;;;8294147;28;20486;-73
2021/01/22 13:35:13;;;;;;;50.58;20.98;;;;;;;;;;8294482;28;20087;-73
2021/01/22 13:39:17;;;;;;;67.38;25.73;;;;;;;;;;8294150;28;20482;-74
2021/01/22 13:43:20;;;;;;;36.15;16.10;;;;;;;;;;8292435;28;20352;-73
2021/01/22 13:47:24;;;;;;;39.80;15.80;;;;;;;;;;8291987;28;20387;-74
2021/01/22 13:51:27;;;;;;;50.70;21.35;;;;;;;;;;8293765;28;20048;-73
2021/01/22 13:55:30;;;;;;;67.25;28.52;;;;;;;;;;8293597;28;20098;-73
2021/01/22 13:59:33;;;;;;;121.72;48.40;;;;;;;;;;8292940;28;20387;-73
2021/01/22 14:03:39;;;;;;;142.80;52.40;;;;;;;;;;8293728;28;20052;-73
2021/01/22 14:07:43;;;;;;;102.53;38.78;;;;;;;;;;8293363;28;20078;-73
2021/01/22 14:11:46;;;;;;;43.25;16.10;;;;;;;;;;8293460;28;20356;-73
2021/01/22 14:15:49;;;;;;;40.47;16.75;;;;;;;;;;8293596;28;20375;-73
2021/01/22 14:19:52;;;;;;;37.42;15.75;;;;;;;;;;8275530;28;20407;-73
2021/01/22 14:23:55;;;;;;;32.30;12.68;;;;;;;;;;8291689;28;20490;-73
2021/01/22 14:28:01;;;;;;;26.65;9.80;;;;;;;;;;8293711;28;20053;-74
2021/01/22 14:32:04;;;;;;;26.55;10.30;;;;;;;;;;8292866;28;20364;-72
2021/01/22 14:36:08;;;;;;;30.70;11.43;;;;;;;;;;8292783;28;20418;-73
2021/01/22 14:40:13;;;;;;;34.85;16.50;;;;;;;;;;8292712;28;20415;-73
2021/01/22 14:44:16;;;;;;;45.72;19.10;;;;;;;;;;8290341;28;20486;-73
2021/01/22 14:48:20;;;;;;;56.85;23.35;;;;;;;;;;8291698;28;20071;-73
2021/01/22 14:52:24;;;;;;;62.38;22.45;;;;;;;;;;8289677;28;20383;-73
2021/01/22 14:56:27;;;;;;;60.53;21.48;;;;;;;;;;8219026;28;20471;-73
2021/01/22 15:00:35;;;;;;;57.70;21.00;;;;;;;;;;8275409;28;20378;-73
2021/01/22 15:04:39;;;;;;;51.15;19.77;;;;;;;;;;8291545;28;20497;-73
2021/01/22 15:08:45;;;;;;;53.55;19.85;;;;;;;;;;8291045;28;20483;-73
2021/01/22 15:12:48;;;;;;;51.13;19.75;;;;;;;;;;8290953;28;20483;-73
2021/01/22 15:16:51;;;;;;;53.65;19.90;;;;;;;;;;8290794;28;20489;-75
2021/01/22 15:20:55;;;;;;;51.28;18.25;;;;;;;;;;8291040;28;20371;-73
2021/01/22 15:24:58;;;;;;;47.05;19.58;;;;;;;;;;8289183;28;20375;-73
2021/01/22 15:29:01;;;;;;;57.40;20.65;;;;;;;;;;8303586;28;20410;-72
2021/01/22 15:33:05;;;;;;;171.52;41.08;;;;;;;;;;8290462;28;20463;-72
2021/01/22 15:37:08;;;;;;;133.60;30.27;;;;;;;;;;8288716;28;20401;-72
2021/01/22 15:41:11;;;;;;;248.77;68.55;;;;;;;;;;8290317;28;20048;-73
2021/01/22 15:45:15;;;;;;;470.45;99.88;;;;;;;;;;8289956;28;20383;-72
2021/01/22 15:49:19;;;;;;;305.77;57.83;;;;;;;;;;8288978;28;20391;-72
2021/01/22 15:53:23;;;;;;;246.32;42.08;;;;;;;;;;8289457;28;20078;-72
2021/01/22 15:57:26;;;;;;;215.27;44.50;;;;;;;;;;8287682;28;20456;-73
2021/01/22 16:01:29;;;;;;;139.90;31.33;;;;;;;;;;8290016;28;20394;-72
2021/01/22 16:05:34;;;;;;;257.30;51.78;;;;;;;;;;8289813;28;20351;-72
2021/01/22 16:09:37;;;;;;;334.83;61.03;;;;;;;;;;8288990;28;20067;-72
2021/01/22 16:13:41;;;;;;;162.63;36.28;;;;;;;;;;8289942;28;20516;-74
2021/01/22 16:17:44;;;;;;;70.53;33.95;;;;;;;;;;8290072;28;20367;-72
2021/01/22 16:21:48;;;;;;;98.10;25.13;;;;;;;;;;8287598;28;20467;-73
2021/01/22 16:25:51;;;;;;;212.23;45.65;;;;;;;;;;8303964;28;20485;-72
2021/01/22 16:29:54;;;;;;;88.05;23.40;;;;;;;;;;8286209;28;20382;-72
2021/01/22 16:33:57;;;;;;;115.13;28.02;;;;;;;;;;8254220;28;20456;-72
2021/01/22 16:38:00;;;;;;;169.18;43.88;;;;;;;;;;8255588;28;20459;-73
2021/01/22 16:42:03;;;;;;;103.40;28.63;;;;;;;;;;8256428;28;20353;-72
2021/01/22 16:46:06;;;;;;;152.57;41.67;;;;;;;;;;8270486;28;20456;-72
2021/01/22 16:50:10;;;;;;;127.90;31.95;;;;;;;;;;8294458;28;20497;-72
2021/01/22 16:54:13;;;;;;;195.93;52.58;;;;;;;;;;8294624;28;20504;-72
2021/01/22 16:58:17;;;;;;;79.95;23.65;;;;;;;;;;8309231;28;20521;-72
2021/01/22 17:02:20;;;;;;;29.15;13.13;;;;;;;;;;8310000;28;20053;-72
2021/01/22 17:06:23;;;;;;;38.78;15.82;;;;;;;;;;8295228;28;20471;-72
2021/01/22 17:10:26;;;;;;;24.35;10.63;;;;;;;;;;8294459;28;20462;-72
2021/01/22 17:14:29;;;;;;;79.85;23.35;;;;;;;;;;8294661;28;20356;-72
2021/01/22 17:18:33;;;;;;;74.97;24.42;;;;;;;;;;8309472;28;20045;-72
2021/01/22 17:22:36;;;;;;;59.35;20.08;;;;;;;;;;8309880;28;20374;-72
2021/01/22 17:26:42;;;;;;;52.58;17.92;;;;;;;;;;8294863;28;20364;-71
2021/01/22 17:30:45;;;;;;;67.00;22.85;;;;;;;;;;8307963;28;20497;-72
2021/01/22 17:34:49;;;;;;;63.55;22.52;;;;;;;;;;8294471;28;20379;-72
2021/01/22 17:38:53;;;;;;;71.63;26.70;;;;;;;;;;8293428;28;20367;-71
2021/01/22 17:42:58;;;;;;;52.90;20.20;;;;;;;;;;8308712;28;20505;-72
2021/01/22 17:47:15;;;;;;;62.03;24.13;;;;;;;;;;8287059;28;20048;-74
2021/01/22 17:51:22;;;;;;;109.35;39.85;;;;;;;;;;8291904;28;20376;-72
2021/01/22 17:55:25;;;;;;;94.28;34.28;;;;;;;;;;8293398;28;20382;-71
2021/01/22 17:59:28;;;;;;;110.97;37.47;;;;;;;;;;8291387;28;20481;-72
2021/01/22 18:03:31;;;;;;;101.82;33.20;;;;;;;;;;8308586;28;20470;-72
2021/01/22 18:07:34;;;;;;;69.35;26.05;;;;;;;;;;8292026;28;20082;-72
2021/01/22 18:11:38;;;;;;;55.13;24.70;;;;;;;;;;8293546;28;20118;-71
2021/01/22 18:15:41;;;;;;;44.88;20.92;;;;;;;;;;8292417;28;20049;-71
2021/01/22 18:19:44;;;;;;;38.00;16.55;;;;;;;;;;8291947;28;20048;-71
2021/01/22 18:23:48;;;;;;;52.63;20.02;;;;;;;;;;8293240;28;20375;-71
2021/01/22 18:27:52;;;;;;;50.38;21.77;;;;;;;;;;8291536;28;20422;-72
2021/01/22 18:31:55;;;;;;;118.45;35.30;;;;;;;;;;8290613;28;20371;-71
2021/01/22 18:36:01;;;;;;;102.43;34.53;;;;;;;;;;8270261;28;20489;-71
2021/01/22 18:40:07;;;;;;;125.68;37.67;;;;;;;;;;8258088;28;20166;-70
2021/01/22 18:44:10;;;;;;;98.72;34.28;;;;;;;;;;8259602;28;20361;-71
2021/01/22 18:48:14;;;;;;;71.50;26.95;;;;;;;;;;8239148;28;20407;-70
2021/01/22 18:52:17;;;;;;;51.15;20.50;;;;;;;;;;8272543;28;20475;-70
2021/01/22 18:56:22;;;;;;;58.72;23.95;;;;;;;;;;8257225;28;20076;-72
2021/01/22 19:00:25;;;;;;;41.78;17.45;;;;;;;;;;8272456;28;20045;-70
2021/01/22 19:04:29;;;;;;;49.10;19.58;;;;;;;;;;8260116;28;20463;-73
2021/01/22 19:08:32;;;;;;;82.53;35.65;;;;;;;;;;8254259;28;20375;-71
2021/01/22 19:12:37;;;;;;;69.05;26.08;;;;;;;;;;8258326;28;20353;-72
2021/01/22 19:16:41;;;;;;;39.42;18.35;;;;;;;;;;8258549;28;20073;-71
2021/01/22 19:20:45;;;;;;;31.13;13.45;;;;;;;;;;8270665;28;20467;-71
2021/01/22 19:24:48;;;;;;;32.97;12.95;;;;;;;;;;8256651;28;20472;-70
2021/01/22 19:28:53;;;;;;;53.42;21.33;;;;;;;;;;8256503;28;20057;-71
2021/01/22 19:32:57;;;;;;;326.23;91.38;;;;;;;;;;8257545;28;20392;-71
2021/01/22 19:37:05;;;;;;;181.98;51.97;;;;;;;;;;8256516;28;20472;-71
2021/01/22 19:41:08;;;;;;;233.70;63.55;;;;;;;;;;8255155;28;20478;-71
2021/01/22 19:45:12;;;;;;;403.90;101.18;;;;;;;;;;8257477;28;20375;-71
2021/01/22 19:49:16;;;;;;;247.13;56.50;;;;;;;;;;8255482;28;20052;-71
2021/01/22 19:53:21;;;;;;;67.47;24.88;;;;;;;;;;8257094;28;20463;-71
2021/01/22 19:57:24;;;;;;;78.60;27.90;;;;;;;;;;8269964;28;20502;-70
2021/01/22 20:01:27;;;;;;;56.78;25.70;;;;;;;;;;8256926;28;20459;-70
2021/01/22 20:05:33;;;;;;;54.33;20.85;;;;;;;;;;8256842;28;20376;-71
2021/01/22 20:09:37;;;;;;;46.92;18.88;;;;;;;;;;8254607;28;20471;-71
2021/01/22 20:13:41;;;;;;;46.90;18.95;;;;;;;;;;8254839;28;20420;-70
2021/01/22 20:17:44;;;;;;;42.42;17.48;;;;;;;;;;8254665;28;20041;-70
2021/01/22 20:21:47;;;;;;;40.95;16.33;;;;;;;;;;8255391;28;20071;-70
2021/01/22 20:25:51;;;;;;;52.85;18.20;;;;;;;;;;8256043;28;20049;-70
2021/01/22 20:29:55;;;;;;;61.65;21.42;;;;;;;;;;8268358;28;20084;-71
2021/01/22 20:34:00;;;;;;;75.07;21.05;;;;;;;;;;8270265;28;20357;-70
2021/01/22 20:38:05;;;;;;;54.78;21.10;;;;;;;;;;8252176;28;20045;-71
2021/01/22 20:42:08;;;;;;;59.33;24.58;;;;;;;;;;8256499;28;20460;-71
2021/01/22 20:46:14;;;;;;;73.60;27.08;;;;;;;;;;8255030;28;20349;-70
2021/01/22 20:50:18;;;;;;;107.90;35.95;;;;;;;;;;8253189;28;20388;-70
2021/01/22 20:54:27;;;;;;;108.22;35.22;;;;;;;;;;8256166;28;20372;-70
2021/01/22 20:58:32;;;;;;;57.10;21.27;;;;;;;;;;8254645;28;20049;-70
2021/01/22 21:02:35;;;;;;;33.05;13.85;;;;;;;;;;8254178;28;20463;-70
2021/01/22 21:06:39;;;;;;;38.33;16.05;;;;;;;;;;8253649;28;20072;-71
2021/01/22 21:10:46;;;;;;;31.55;14.05;;;;;;;;;;8251785;28;20383;-70
2021/01/22 21:14:52;;;;;;;40.70;14.65;;;;;;;;;;8221081;28;20060;-71
2021/01/22 21:18:56;;;;;;;27.55;12.20;;;;;;;;;;8253951;28;20391;-71
2021/01/22 21:23:01;;;;;;;33.13;14.70;;;;;;;;;;8220759;28;20384;-71
2021/01/22 21:27:06;;;;;;;44.53;21.30;;;;;;;;;;8254968;28;20075;-71
2021/01/22 21:31:09;;;;;;;50.80;20.83;;;;;;;;;;8255783;28;20376;-70
2021/01/22 21:35:13;;;;;;;42.53;18.05;;;;;;;;;;8261290;28;20071;-70
2021/01/22 21:39:22;;;;;;;39.72;17.30;;;;;;;;;;8259799;28;20506;-71
2021/01/22 21:43:25;;;;;;;43.38;18.63;;;;;;;;;;8275913;28;20045;-70
2021/01/22 21:47:31;;;;;;;53.63;22.17;;;;;;;;;;8259440;28;20412;-70
2021/01/22 21:51:35;;;;;;;66.47;23.38;;;;;;;;;;8260644;28;20112;-70
2021/01/22 21:55:38;;;;;;;49.33;21.33;;;;;;;;;;8255595;28;20479;-70
2021/01/22 21:59:42;;;;;;;67.00;25.25;;;;;;;;;;8260211;28;20383;-71
2021/01/22 22:03:45;;;;;;;56.67;26.42;;;;;;;;;;8260819;28;20541;-74
2021/01/22 22:07:48;;;;;;;48.28;19.42;;;;;;;;;;8260156;28;20485;-70
2021/01/22 22:11:53;;;;;;;57.35;20.08;;;;;;;;;;8259559;28;20483;-70
2021/01/22 22:15:56;;;;;;;65.25;22.45;;;;;;;;;;8259369;28;20486;-71
2021/01/22 22:20:02;;;;;;;236.43;51.40;;;;;;;;;;8311464;28;20071;-71
2021/01/22 22:24:08;;;;;;;153.82;40.45;;;;;;;;;;8293809;28;20509;-70
2021/01/22 22:28:11;;;;;;;87.55;26.10;;;;;;;;;;8285759;28;20457;-70
2021/01/22 22:32:15;;;;;;;45.53;18.90;;;;;;;;;;8311655;28;20500;-70
2021/01/22 22:36:19;;;;;;;48.08;19.80;;;;;;;;;;8319980;28;20496;-71
2021/01/22 22:40:23;;;;;;;53.50;19.58;;;;;;;;;;8320785;28;20488;-71
2021/01/22 22:44:26;;;;;;;50.95;22.52;;;;;;;;;;8320700;28;20490;-71
2021/01/22 22:48:29;;;;;;;54.75;23.05;;;;;;;;;;8301147;28;20465;-70
2021/01/22 22:52:36;;;;;;;79.13;30.45;;;;;;;;;;8306533;28;20360;-71
2021/01/22 22:56:39;;;;;;;82.03;32.85;;;;;;;;;;8289682;28;20352;-70
2021/01/22 23:00:46;;;;;;;79.82;31.60;;;;;;;;;;8305884;28;20477;-70
2021/01/22 23:04:49;;;;;;;79.53;32.33;;;;;;;;;;8291262;28;20401;-71
2021/01/22 23:08:53;;;;;;;85.72;33.28;;;;;;;;;;8272742;28;20348;-71
2021/01/22 23:12:56;;;;;;;70.40;30.80;;;;;;;;;;8289238;28;20405;-71
2021/01/22 23:17:02;;;;;;;73.35;30.75;;;;;;;;;;8289914;28;20044;-71
2021/01/22 23:21:06;;;;;;;63.45;27.95;;;;;;;;;;8289707;28;20447;-71
2021/01/22 23:25:14;;;;;;;65.60;27.80;;;;;;;;;;8289418;28;20490;-72
2021/01/22 23:29:18;;;;;;;74.38;30.73;;;;;;;;;;8290759;28;20387;-71
2021/01/22 23:33:21;;;;;;;67.60;28.92;;;;;;;;;;8291338;28;20497;-70
2021/01/22 23:37:24;;;;;;;70.72;28.23;;;;;;;;;;8289303;28;20052;-70
2021/01/22 23:41:27;;;;;;;67.45;26.73;;;;;;;;;;8289615;28;20417;-70
2021/01/22 23:45:30;;;;;;;49.90;21.33;;;;;;;;;;8289655;28;20045;-70